Home > Products > Valid Products > TAF

000
FTUS43 KLSX 201200 AAB
TAFCOU
TAF AMD
KCOU 201258Z 2013/2112 19005KT P6SM SCT250
     FM201400 22010KT P6SM SCT040 BKN250
     FM210100 24008KT P6SM VCTS SCT040CB BKN100
     FM210600 27009KT P6SM BKN040=



000
FTUS43 KLSX 201200 AAA
TAFUIN
TAF AMD
KUIN 201212Z 2012/2112 19006KT P6SM SCT250
      TEMPO 2012/2013 4SM BR
     FM201500 21012KT P6SM SCT040 BKN250
     FM202100 23009KT P6SM VCTS SCT040CB BKN100
     FM210200 30010KT P6SM BKN040=



000
FTUS43 KLSX 201200 AAA
TAFCOU
TAF AMD
KCOU 201211Z 2012/2112 17006KT P6SM SCT250
      TEMPO 2012/2013 2SM BR
     FM201400 22010KT P6SM SCT040 BKN250
     FM210100 24008KT P6SM VCTS SCT040CB BKN100
     FM210600 27009KT P6SM BKN040=



000
FTUS43 KLSX 201100
TAFSTL
TAF
KSTL 201130Z 2012/2118 17006KT P6SM SCT250
     FM201500 24012KT P6SM FEW040 SCT250
     FM210300 24008KT P6SM VCTS SCT040CB BKN100
     FM210800 30010KT P6SM BKN040=



000
FTUS43 KLSX 201100
TAFUIN
TAF
KUIN 201130Z 2012/2112 19006KT P6SM SCT250
     FM201500 21012KT P6SM SCT040 BKN250
     FM202100 23009KT P6SM VCTS SCT040CB BKN100
     FM210200 30010KT P6SM BKN040=



000
FTUS43 KLSX 201100
TAFCOU
TAF
KCOU 201130Z 2012/2112 17006KT P6SM SCT250
     FM201400 22010KT P6SM SCT040 BKN250
     FM210100 24008KT P6SM VCTS SCT040CB BKN100
     FM210600 27009KT P6SM BKN040=



000
FTUS43 KLSX 201100
TAFSUS
TAF
KSUS 201130Z 2012/2112 00000KT 3SM BCFG SCT250
      TEMPO 2012/2013 2SM BR
     FM201400 24010KT P6SM FEW040 SCT250
     FM210300 24008KT P6SM VCTS SCT040CB BKN100
     FM210800 30010KT P6SM BKN040=



000
FTUS43 KLSX 200800 AAA
TAFCOU
TAF AMD
KCOU 200805Z 2008/2106 17006KT P6SM SCT250
      TEMPO 2008/2012 4SM BR
     FM201400 22010KT P6SM SCT040 BKN250
     FM210100 24008KT P6SM VCTS SCT040CB BKN100=



000
FTUS43 KLSX 200600 AAA
TAFSUS
TAF AMD
KSUS 200603Z 2006/2106 00000KT 3SM BR SCT250
      TEMPO 2006/2009 2SM BR
     FM200900 00000KT 2SM BR SCT250
      TEMPO 2009/2012 1SM BR
     FM201400 24010KT P6SM FEW040 SCT250
     FM210300 24008KT P6SM VCTS SCT040CB BKN100=



000
FTUS43 KLSX 200500
TAFCOU
TAF
KCOU 200520Z 2006/2106 18006KT P6SM SCT250
     FM201400 22010KT P6SM SCT040 BKN250
     FM210100 24008KT P6SM VCTS SCT040CB BKN100=



000
FTUS43 KLSX 200500
TAFSUS
TAF
KSUS 200520Z 2006/2106 VRB03KT 6SM BR SCT250
     FM200700 00000KT 3SM BR SCT250
     FM201400 24010KT P6SM FEW040 SCT250
     FM210300 24008KT P6SM VCTS SCT040CB BKN100=



000
FTUS43 KLSX 200500
TAFSTL
TAF
KSTL 200520Z 2006/2112 17006KT P6SM SCT250
     FM201500 24012KT P6SM FEW040 SCT250
     FM210300 24008KT P6SM VCTS SCT040CB BKN100
     FM210800 30010KT P6SM BKN040=



000
FTUS43 KLSX 200500
TAFUIN
TAF
KUIN 200520Z 2006/2106 19006KT P6SM SCT250
     FM201500 21012KT P6SM SCT040 BKN250
     FM202100 23009KT P6SM VCTS SCT040CB BKN100
     FM210200 30010KT P6SM BKN040=



000
FTUS43 KLSX 200200 AAA
TAFSTL
TAF AMD
KSTL 200259Z 2003/2106 17006KT P6SM SCT250
     FM201500 24010KT P6SM FEW040 SCT250
     FM210000 23006KT P6SM SCT040 BKN100=



000
FTUS43 KLSX 192300
TAFSUS
TAF
KSUS 192335Z 2000/2024 VRB03KT P6SM SCT200
     FM200500 00000KT 3SM BR SCT250
     FM201400 24010KT P6SM FEW040 SCT250=



000
FTUS43 KLSX 192300
TAFUIN
TAF
KUIN 192335Z 2000/2024 19006KT P6SM SCT250
     FM201500 21012KT P6SM SCT040 BKN250
     FM202100 23009KT P6SM VCTS BKN040CB=



000
FTUS43 KLSX 192300
TAFCOU
TAF
KCOU 192335Z 2000/2024 18006KT P6SM SCT250
     FM201400 18010KT P6SM SCT040 BKN250=



000
FTUS43 KLSX 192300
TAFSTL
TAF
KSTL 192335Z 2000/2106 18005KT P6SM SCT250
     FM201500 24010KT P6SM FEW040 SCT250
     FM210000 23006KT P6SM SCT040 BKN100=



000
FTUS43 KLSX 192000 AAA
TAFSTL
TAF AMD
KSTL 192052Z 1921/2024 16005KT P6SM FEW050
     FM200600 18004KT P6SM SCT250
     FM201500 24010KT P6SM FEW040=



000
FTUS43 KLSX 191700
TAFSUS
TAF
KSUS 191734Z 1918/2018 14007KT P6SM FEW040
     FM200600 18004KT P6SM VCFG SCT250
     FM201400 24010KT P6SM SCT040=



000
FTUS43 KLSX 191700
TAFSTL
TAF
KSTL 191734Z 1918/2024 14007KT P6SM FEW040
     FM200600 18004KT P6SM SCT250
     FM201500 24010KT P6SM FEW040=



000
FTUS43 KLSX 191700
TAFUIN
TAF
KUIN 191734Z 1918/2018 16008KT P6SM SKC
     FM200900 21012KT P6SM SCT250=



000
FTUS43 KLSX 191700
TAFCOU
TAF
KCOU 191734Z 1918/2018 15008KT P6SM FEW040
     FM200700 18008KT P6SM SCT250=



000
FTUS43 KLSX 191400 AAB
TAFSUS
TAF AMD
KSUS 191417Z 1914/2012 14007KT P6SM FEW040
     FM200600 18004KT P6SM SCT250=



000
FTUS43 KLSX 191400 AAA
TAFCOU
TAF AMD
KCOU 191417Z 1914/2012 15008KT P6SM FEW040
     FM200100 VRB04KT P6SM SCT250=



000
FTUS43 KLSX 191400 AAA
TAFUIN
TAF AMD
KUIN 191417Z 1914/2012 16008KT P6SM SKC=



000
FTUS43 KLSX 191400 AAA
TAFSTL
TAF AMD
KSTL 191417Z 1914/2018 14007KT P6SM FEW040
     FM200600 18004KT P6SM SCT250=



000
FTUS43 KLSX 191200 AAA
TAFSUS
TAF AMD
KSUS 191237Z 1913/2012 00000KT 6SM BCFG SKC
     FM191400 14007KT P6SM FEW040
     FM200600 18004KT P6SM SCT250=



000
FTUS43 KLSX 191100
TAFSUS
TAF
KSUS 191130Z 1912/2012 00000KT 3SM BR SKC
      TEMPO 1912/1913 2SM BR
     FM191400 14007KT P6SM FEW040
     FM200600 18004KT P6SM SCT250=



000
FTUS43 KLSX 191100
TAFCOU
TAF
KCOU 191130Z 1912/2012 10005KT P6SM FEW040
     FM191500 15008KT P6SM FEW040
     FM200100 VRB04KT P6SM SCT250=



000
FTUS43 KLSX 191100
TAFSTL
TAF
KSTL 191130Z 1912/2018 VRB03KT P6SM SKC
     FM191500 14007KT P6SM FEW040
     FM200600 18004KT P6SM SCT250=



000
FTUS43 KLSX 191100
TAFUIN
TAF
KUIN 191130Z 1912/2012 12004KT P6SM SKC
     FM191500 16008KT P6SM SKC=



000
FTUS43 KLSX 191100 AAB
TAFUIN
TAF AMD
KUIN 191102Z 1911/2006 12004KT P6SM SKC
     FM191500 16008KT P6SM SKC=



000
FTUS43 KLSX 191100 AAA
TAFSUS
TAF AMD
KSUS 191101Z 1911/2006 00000KT 3SM BR SKC
      TEMPO 1911/1913 1SM BR
     FM191400 14007KT P6SM FEW040=



000
FTUS43 KLSX 190900 AAA
TAFUIN
TAF AMD
KUIN 190933Z 1910/2006 12004KT P6SM SKC
      TEMPO 1911/1912 4SM BR
     FM191500 16008KT P6SM SKC=



000
FTUS43 KLSX 190900 AAA
TAFSTL
TAF AMD
KSTL 190900Z 1909/2012 VRB03KT P6SM SKC
     FM191500 14007KT P6SM FEW040=



000
FTUS43 KLSX 190800 AAA
TAFCOU
TAF AMD
KCOU 190837Z 1909/2006 10005KT P6SM FEW040
      TEMPO 1911/1912 4SM BR
     FM191500 15008KT P6SM FEW040=



000
FTUS43 KLSX 190500
TAFSUS
TAF
KSUS 190520Z 1906/2006 00000KT 3SM BR SKC
      TEMPO 1906/1909 1/2SM FG
     FM190900 00000KT 2SM BR SKC
      TEMPO 1909/1913 1/2SM FG VV001
     FM191500 14007KT P6SM FEW040=



000
FTUS43 KLSX 190500
TAFSTL
TAF
KSTL 190520Z 1906/2012 VRB03KT P6SM SKC
     FM191500 14007KT P6SM FEW040=



000
FTUS43 KLSX 190500
TAFCOU
TAF
KCOU 190520Z 1906/2006 09005KT P6SM FEW040
      TEMPO 1906/1909 4SM BR
     FM190900 00000KT 2SM BR SCT010
     FM191500 15008KT P6SM FEW040=



000
FTUS43 KLSX 190500
TAFUIN
TAF
KUIN 190520Z 1906/2006 10004KT P6SM SKC
      TEMPO 1909/1913 4SM BR
     FM191500 16008KT P6SM SKC=



000
FTUS43 KLSX 190400 AAA
TAFSUS
TAF AMD
KSUS 190453Z 1905/1924 00000KT 4SM BR SKC
      TEMPO 1905/1909 1/2SM FG
     FM190900 00000KT 2SM BR SKC
      TEMPO 1909/1913 1/2SM FG VV001
     FM191500 14007KT P6SM FEW040=



000
FTUS43 KLSX 190300 AAA
TAFSTL
TAF AMD
KSTL 190300Z 1903/2006 VRB03KT P6SM SKC
     FM191500 14007KT P6SM FEW040=



000
FTUS43 KLSX 182300
TAFSTL
TAF
KSTL 182320Z 1900/2006 10006KT P6SM SKC
     FM191500 14007KT P6SM FEW040=



000
FTUS43 KLSX 182300
TAFSUS
TAF
KSUS 182320Z 1900/1924 VRB02KT P6SM SKC
     FM190900 00000KT 5SM BR SKC
     FM191500 14007KT P6SM FEW040=



000
FTUS43 KLSX 182300
TAFUIN
TAF
KUIN 182320Z 1900/1924 10004KT P6SM SKC
      TEMPO 1909/1913 4SM BR
     FM191500 16008KT P6SM SKC=



000
FTUS43 KLSX 182300
TAFCOU
TAF
KCOU 182320Z 1900/1924 09005KT P6SM FEW040
     FM190900 00000KT 4SM BR SCT010
     FM191500 15008KT P6SM FEW040=



000
FTUS43 KLSX 182000 AAA
TAFSTL
TAF AMD
KSTL 182059Z 1821/1924 11008KT P6SM SCT040
     FM190000 10004KT P6SM SKC
     FM191500 14007KT P6SM SKC=



000
FTUS43 KLSX 181700
TAFSTL
TAF
KSTL 181721Z 1818/1924 09005KT P6SM BKN035
     FM181900 09007KT P6SM SCT040
     FM190000 10004KT P6SM SKC
     FM191500 14007KT P6SM SKC=



000
FTUS43 KLSX 181700
TAFUIN
TAF
KUIN 181721Z 1818/1918 11008KT P6SM SCT040
     FM190000 10006KT P6SM SKC
     FM191500 14007KT P6SM SKC=



000
FTUS43 KLSX 181700
TAFCOU
TAF
KCOU 181721Z 1818/1918 09008KT P6SM OVC020
     FM182000 09007KT P6SM BKN030
     FM182200 09007KT P6SM SCT040
     FM190900 00000KT 5SM BR SKC
     FM191500 14007KT P6SM SKC=



000
FTUS43 KLSX 181700
TAFSUS
TAF
KSUS 181721Z 1818/1918 09005KT P6SM BKN035
     FM181900 09006KT P6SM SCT040
     FM190100 00000KT P6SM SKC
     FM190900 00000KT 5SM BR SKC
     FM191500 14007KT P6SM SKC=



000
FTUS43 KLSX 181500 AAB
TAFCOU
TAF AMD
KCOU 181543Z 1816/1912 09008KT 3SM BR OVC004
     FM181700 09008KT P6SM OVC022
     FM182000 09007KT P6SM BKN030
     FM182200 09007KT P6SM SCT040=



000
FTUS43 KLSX 181400 AAA
TAFSTL
TAF AMD
KSTL 181451Z 1815/1918 09005KT P6SM OVC035
     FM181900 09007KT P6SM SCT040
     FM190000 10004KT P6SM SKC=



000
FTUS43 KLSX 181300 AAA
TAFSUS
TAF AMD
KSUS 181302Z 1813/1912 09005KT P6SM OVC035
     FM181900 09006KT P6SM SCT040
     FM190100 00000KT P6SM SKC
     FM190900 00000KT 5SM BR SKC=



000
FTUS43 KLSX 181300 AAA
TAFCOU
TAF AMD
KCOU 181300Z 1813/1912 10005KT 3SM BR OVC004
      TEMPO 1813/1814 2SM BR
     FM181500 09008KT 5SM BR SCT007 OVC015
     FM181700 09008KT P6SM OVC022
     FM182000 09007KT P6SM BKN030
     FM182200 09007KT P6SM SCT040=



000
FTUS43 KLSX 181100 RRA
TAFCOU
TAF
KCOU 181141Z 1812/1912 NIL=



000
FTUS43 KLSX 181100 RRA
TAFSUS
TAF
KSUS 181141Z 1812/1912 00000KT P6SM OVC024
     FM181500 09005KT P6SM OVC030
     FM181900 09006KT P6SM SCT040
     FM190100 00000KT P6SM SKC
     FM190900 00000KT 5SM BR SKC=



000
FTUS43 KLSX 181100 RRA
TAFSTL
TAF
KSTL 181141Z 1812/1918 VRB03KT P6SM OVC028
     FM181400 09005KT P6SM OVC030
     FM181900 09007KT P6SM SCT040
     FM190000 10004KT P6SM SKC=



000
FTUS43 KLSX 181100 RRA
TAFUIN
TAF
KUIN 181141Z 1812/1912 08004KT 4SM BR SCT050
      TEMPO 1812/1813 1 1/2SM BR SCT003
     FM181400 11006KT P6SM SCT012 SCT050
     FM181800 11008KT P6SM SCT040
     FM190000 10006KT P6SM SKC=



000
FTUS43 KLSX 181000 AAA
TAFSUS
TAF AMD
KSUS 181059Z 1811/1906 VRB03KT P6SM OVC024
     FM181500 10005KT P6SM OVC030
     FM181800 09005KT P6SM SCT035=



000
FTUS43 KLSX 181000 AAB
TAFSTL
TAF AMD
KSTL 181053Z 1811/1912 VRB03KT P6SM OVC024
     FM181400 11007KT P6SM OVC030
     FM181800 09008KT P6SM SCT035=



000
FTUS43 KLSX 181000 AAA
TAFUIN
TAF AMD
KUIN 181048Z 1811/1906 09004KT 3SM BR SCT003 SCT050
      TEMPO 1811/1813 1/2SM FG BKN002
     FM181400 09005KT 5SM BR SCT010
     FM181500 09005KT P6SM SCT015
     FM181800 11008KT P6SM SCT030=



000
FTUS43 KLSX 180900 AAA
TAFSTL
TAF AMD
KSTL 180913Z 1809/1912 08004KT P6SM OVC016
     FM181500 11007KT P6SM BKN025
     FM181800 09008KT P6SM SCT035=



000
FTUS43 KLSX 180500 AAA
TAFCOU
TAF AMD
KCOU 180551Z 1806/1906 NIL=



000
FTUS43 KLSX 180500
TAFSTL
TAF
KSTL 180520Z 1806/1912 VRB03KT P6SM OVC015
     FM181500 11007KT P6SM BKN025
     FM181800 09008KT P6SM SCT035=



000
FTUS43 KLSX 180500
TAFCOU
TAF
KCOU 180520Z 1806/1906 08007KT 1SM BR OVC002
      TEMPO 1806/1809 1/2SM FG
     FM180900 07005KT 1/2SM FG OVC001
     FM181500 09008KT P6SM BKN012
     FM182000 11007KT P6SM BKN030=



000
FTUS43 KLSX 180500
TAFSUS
TAF
KSUS 180520Z 1806/1906 VRB03KT P6SM OVC015
     FM181500 10005KT P6SM BKN025
     FM181800 09005KT P6SM SCT035=



000
FTUS43 KLSX 180500
TAFUIN
TAF
KUIN 180520Z 1806/1906 09004KT 4SM BR SCT003
      TEMPO 1806/1809 1SM BR BKN003
     FM180900 09005KT 1/2SM FG OVC002
     FM181500 11007KT P6SM BKN012
     FM181800 11008KT P6SM SCT030=



000
FTUS43 KLSX 180300 AAA
TAFCOU
TAF AMD
KCOU 180300Z 1803/1824 08005KT 1SM BR OVC003
     FM181600 09008KT P6SM BKN012
     FM182000 10007KT P6SM BKN030
      AMD NOT SKED=



000
FTUS43 KLSX 180200 AAB
TAFSTL
TAF AMD
KSTL 180258Z 1803/1906 VRB03KT P6SM OVC015
     FM181500 11007KT P6SM BKN025
     FM181800 09008KT P6SM SCT035=



000
FTUS43 KLSX 180200 AAB
TAFSUS
TAF AMD
KSUS 180204Z 1802/1824 VRB03KT P6SM SCT008 OVC016
      TEMPO 1802/1805 5SM BR OVC008
     FM180900 00000KT 2SM BR SCT005 BKN035
     FM181400 09004KT P6SM SCT040=



000
FTUS43 KLSX 180000 AAA
TAFSUS
TAF AMD
KSUS 180010Z 1800/1824 VRB03KT P6SM SCT016 OVC025
      TEMPO 1800/1803 5SM -DZ BR OVC016
     FM180900 00000KT 2SM BR SCT005 BKN035
     FM181400 09004KT P6SM SCT040=



000
FTUS43 KLSX 180000 AAA
TAFSTL
TAF AMD
KSTL 180009Z 1800/1906 09006KT P6SM SCT018 OVC030
      TEMPO 1800/1803 5SM -DZ BR OVC018
     FM180900 09004KT 4SM BR BKN035
     FM181400 09007KT P6SM SCT040=



000
FTUS43 KLSX 172300
TAFCOU
TAF
KCOU 172320Z 1800/1824 07004KT 4SM BR OVC005
     FM180900 08005KT 1SM BR OVC003
     FM181600 09008KT P6SM BKN012
     FM182000 10007KT P6SM BKN030=



000
FTUS43 KLSX 172300
TAFUIN
TAF
KUIN 172320Z 1800/1824 11004KT P6SM BKN035
     FM180400 11004KT P6SM SCT040
     FM180900 09004KT 4SM BR SCT010
     FM181400 11008KT P6SM SCT040=



000
FTUS43 KLSX 172300
TAFSUS
TAF
KSUS 172320Z 1800/1824 VRB03KT P6SM OVC025
     FM180900 00000KT 2SM BR SCT005 BKN035
     FM181400 09004KT P6SM SCT040=



000
FTUS43 KLSX 172300
TAFSTL
TAF
KSTL 172320Z 1800/1906 09006KT P6SM OVC030
     FM180900 09004KT 4SM BR BKN035
     FM181400 09007KT P6SM SCT040=



000
FTUS43 KLSX 172000 AAA
TAFUIN
TAF AMD
KUIN 172049Z 1721/1818 12006KT P6SM BKN025
     FM180100 11004KT P6SM SCT030
     FM180900 09004KT 4SM BR FEW050
     FM181400 11008KT P6SM SCT040=



000
FTUS43 KLSX 172000 AAA
TAFSUS
TAF AMD
KSUS 172047Z 1721/1818 VRB03KT P6SM OVC030
     FM180900 00000KT 2SM BR SCT005 SCT030
     FM181400 09004KT P6SM SCT040=



000
FTUS43 KLSX 172000 AAA
TAFSTL
TAF AMD
KSTL 172046Z 1721/1824 09006KT P6SM OVC030
     FM180900 09005KT 4SM BR SCT030
     FM181400 09007KT P6SM SCT040=



000
FTUS43 KLSX 172000 AAA
TAFCOU
TAF AMD
KCOU 172037Z 1721/1818 09004KT P6SM OVC005
      TEMPO 1721/1722 -DZ
     FM172200 09004KT P6SM OVC010
     FM180300 09004KT 5SM BR BKN010
     FM180800 08004KT 3SM BR BKN006
     FM181600 09008KT P6SM SCT020=



000
FTUS43 KLSX 171700
TAFSUS
TAF
KSUS 171720Z 1718/1818 12005KT P6SM SCT020 OVC040
      TEMPO 1718/1721 -RA OVC020
     FM180300 00000KT 6SM BR BKN040
     FM180900 00000KT 2SM BR SCT005 SCT040
     FM181400 09004KT P6SM SCT040=



000
FTUS43 KLSX 171700
TAFCOU
TAF
KCOU 171720Z 1718/1818 12005KT 4SM BR OVC004
      TEMPO 1718/1719 2SM -DZ BR OVC002
     FM172000 12004KT P6SM OVC018
     FM180300 09004KT 5SM BR BKN010
     FM180800 08004KT 3SM BR BKN006
     FM181600 09008KT P6SM SCT020
      AMD NOT SKED=



000
FTUS43 KLSX 171700
TAFSTL
TAF
KSTL 171720Z 1718/1824 13007KT P6SM SCT020 OVC040
      TEMPO 1718/1721 -RA OVC020
     FM180300 10004KT 6SM BR BKN040
     FM180900 09005KT 4SM BR SCT040
     FM181400 09007KT P6SM SCT040=



000
FTUS43 KLSX 171700
TAFUIN
TAF
KUIN 171720Z 1718/1818 15009KT P6SM BKN050
     FM172300 11004KT P6SM SCT050
     FM180900 09004KT 4SM BR FEW050
     FM181400 11008KT P6SM SCT040=



000
FTUS43 KLSX 171500 AAA
TAFSUS
TAF AMD
KSUS 171513Z 1715/1812 VRB05KT P6SM SCT020 OVC035
      TEMPO 1715/1718 -RA OVC020
     FM171900 16006KT P6SM SCT020 OVC035
     FM180300 VRB03KT P6SM BKN050
     FM180900 00000KT 3SM BR SCT040=



000
FTUS43 KLSX 171500 AAA
TAFSTL
TAF AMD
KSTL 171512Z 1715/1818 16008KT P6SM SCT020 OVC040
      TEMPO 1715/1718 -RA OVC020
     FM171900 16006KT P6SM SCT020 OVC035
     FM180300 09004KT P6SM BKN050
     FM180900 07004KT 5SM BR SCT040=



    US Dept of Commerce
    National Oceanic and Atmospheric Administration
    National Weather Service
    1325 East West Highway
    Silver Spring, MD 20910
    Page Author: NWS Internet Services Team
Disclaimer
Information Quality
Credits
Glossary
Privacy Policy
Freedom of Information Act (FOIA)
About Us
Career Opportunities